X  Close Metar Aviation Weather Data        KDWH George Bush Intercontinental Airport
Temperature
83°F Temperature
63°F Dewpoint
51% Humidity



Wind
22 MPH
35 KM/H
10 M/S
19 KTS



200°
SSW
Current Conditions

Sunny Sunny
Pressure 1006 (hPa) - 29.7 (inHg)
Visibility 10 (mile) - 16 (km)
Airport
Airport-code KDWH

Location: George Bush Intercontinental Airport
Distance: 12 (mi)

Metar:
METAR KDWH 272153Z 20019G28KT 10SM CLR 28/17 A2971 RMK AO2 PK WND 20029/2117 SLP059 T02830172

Time: 2024-02-27 15:53 CST